createdAt,value
2018-01-11T00:01:10.386Z,71.90
2018-01-11T00:03:38.855Z,71.10
2018-01-11T00:06:06.391Z,71.00
2018-01-11T00:08:33.974Z,71.00
2018-01-11T00:11:01.490Z,71.10
2018-01-11T00:13:29.066Z,71.50
2018-01-11T00:15:56.592Z,72.10
2018-01-11T00:18:24.146Z,72.50
2018-01-11T00:20:51.705Z,72.60
2018-01-11T00:23:19.993Z,73.60
2018-01-11T00:25:47.552Z,73.60
2018-01-11T00:28:15.089Z,73.20
2018-01-11T00:30:43.398Z,73.00
2018-01-11T00:33:10.936Z,72.90
2018-01-11T00:35:39.240Z,73.70
2018-01-11T00:38:06.765Z,73.60
2018-01-11T00:40:35.132Z,73.90
2018-01-11T00:43:03.468Z,74.10
2018-01-11T00:45:31.016Z,74.10
2018-01-11T00:47:58.575Z,74.50
2018-01-11T00:50:26.116Z,74.80
2018-01-11T00:52:53.661Z,74.70
2018-01-11T00:55:21.957Z,74.40
2018-01-11T00:57:49.473Z,74.40
2018-01-11T01:00:17.806Z,74.10
2018-01-11T01:02:45.340Z,74.10
2018-01-11T01:05:12.898Z,74.40
2018-01-11T01:07:40.432Z,74.20
2018-01-11T01:10:07.977Z,74.60
2018-01-11T01:12:35.538Z,74.60
2018-01-11T01:15:03.081Z,74.50
2018-01-11T01:17:30.611Z,74.20
2018-01-11T01:19:58.130Z,74.30
2018-01-11T01:22:25.691Z,74.50
2018-01-11T01:24:53.263Z,74.50
2018-01-11T01:27:21.579Z,74.10
2018-01-11T01:29:49.137Z,74.00
2018-01-11T01:32:16.673Z,74.30
2018-01-11T01:34:44.223Z,74.10
2018-01-11T01:37:12.492Z,74.20
2018-01-11T01:39:40.825Z,73.90
2018-01-11T01:42:08.358Z,73.90
2018-01-11T01:44:35.922Z,74.40
2018-01-11T01:47:03.461Z,74.10
2018-01-11T01:49:31.781Z,73.90
2018-01-11T01:54:33.155Z,73.30
2018-01-11T01:57:00.690Z,73.30
2018-01-11T01:59:28.252Z,73.50
2018-01-11T02:01:55.816Z,74.20
2018-01-11T02:04:23.381Z,74.00
2018-01-11T02:06:50.952Z,73.20
2018-01-11T02:09:18.631Z,73.20
2018-01-11T02:11:46.199Z,73.00
2018-01-11T02:14:14.497Z,73.50
2018-01-11T02:16:42.786Z,73.60
2018-01-11T02:19:10.310Z,73.60
2018-01-11T02:21:37.853Z,73.40
2018-01-11T02:24:05.381Z,73.60
2018-01-11T02:26:32.929Z,73.00
2018-01-11T02:29:03.523Z,73.80
2018-01-11T02:31:31.076Z,74.00
2018-01-11T02:33:59.387Z,74.30
2018-01-11T02:36:26.930Z,74.00
2018-01-11T02:38:54.477Z,74.50
2018-01-11T02:41:22.006Z,74.40
2018-01-11T02:43:49.529Z,74.10
2018-01-11T02:46:17.094Z,74.00
2018-01-11T02:48:44.641Z,73.90
2018-01-11T02:51:12.198Z,74.90
2018-01-11T02:56:15.313Z,74.80
2018-01-11T02:58:42.863Z,74.70
2018-01-11T03:01:10.416Z,76.00
2018-01-11T03:03:38.743Z,74.90
2018-01-11T03:06:06.279Z,74.90
2018-01-11T03:08:33.827Z,74.40
2018-01-11T03:11:01.380Z,74.60
2018-01-11T03:13:28.914Z,74.40
2018-01-11T03:15:56.468Z,76.10
2018-01-11T03:18:24.060Z,76.80
2018-01-11T03:20:51.597Z,77.70
2018-01-11T03:23:19.148Z,77.10
2018-01-11T03:25:46.710Z,77.70
2018-01-11T03:28:14.254Z,77.40
2018-01-11T03:30:41.781Z,76.50
2018-01-11T03:33:09.368Z,77.10
2018-01-11T03:35:36.886Z,78.00
2018-01-11T03:38:04.443Z,77.90
2018-01-11T03:40:31.970Z,78.80
2018-01-11T03:42:59.540Z,79.00
2018-01-11T03:45:27.851Z,79.00
2018-01-11T03:47:55.428Z,79.00
2018-01-11T03:50:22.984Z,78.60
2018-01-11T03:52:50.525Z,78.50
2018-01-11T03:55:18.055Z,78.40
2018-01-11T03:57:45.623Z,78.70
2018-01-11T04:00:13.152Z,79.00
2018-01-11T04:02:40.746Z,79.30
2018-01-11T04:05:09.092Z,79.20
2018-01-11T04:07:36.634Z,79.00
2018-01-11T04:10:04.185Z,79.00
2018-01-11T04:12:31.710Z,78.90
2018-01-11T04:14:59.306Z,79.20
2018-01-11T04:17:26.848Z,79.30
2018-01-11T04:19:54.370Z,79.60
2018-01-11T04:22:22.809Z,80.00
2018-01-11T04:24:50.362Z,79.90
2018-01-11T04:27:17.927Z,80.10
2018-01-11T04:29:45.540Z,80.40
2018-01-11T04:32:13.137Z,80.70
2018-01-11T04:34:40.657Z,81.00
2018-01-11T04:37:08.213Z,80.90
2018-01-11T04:39:36.540Z,81.00
2018-01-11T04:42:04.077Z,80.90
2018-01-11T04:44:31.687Z,81.00
2018-01-11T04:46:59.266Z,81.30
2018-01-11T04:49:26.862Z,81.80
2018-01-11T04:51:54.404Z,81.60
2018-01-11T04:54:21.915Z,81.30
2018-01-11T04:56:49.461Z,81.20
2018-01-11T04:59:17.012Z,81.00
2018-01-11T05:01:44.551Z,80.90
2018-01-11T05:04:12.085Z,81.20
2018-01-11T05:09:13.458Z,81.10
2018-01-11T05:11:41.034Z,80.90
2018-01-11T05:14:08.567Z,81.00
2018-01-11T05:16:36.869Z,80.20
2018-01-11T05:19:04.453Z,80.10
2018-01-11T05:21:32.750Z,80.40
2018-01-11T05:24:00.334Z,80.30
2018-01-11T05:26:28.641Z,81.00
2018-01-11T05:28:56.190Z,80.90
2018-01-11T05:31:23.793Z,81.00
2018-01-11T05:33:51.397Z,81.20
2018-01-11T05:36:19.747Z,81.10
2018-01-11T05:38:47.295Z,80.90
2018-01-11T05:41:14.870Z,81.10
2018-01-11T05:43:42.390Z,81.10
2018-01-11T05:46:09.940Z,81.60
2018-01-11T05:48:37.491Z,81.80
2018-01-11T05:51:05.009Z,82.80
2018-01-11T05:53:34.028Z,82.20
2018-01-11T05:56:02.314Z,81.20
2018-01-11T05:58:29.888Z,81.10
2018-01-11T06:00:57.430Z,80.90
2018-01-11T06:03:25.681Z,80.40
2018-01-11T06:05:53.148Z,80.40
2018-01-11T06:10:54.869Z,80.30
2018-01-11T06:13:22.430Z,80.20
2018-01-11T06:15:49.959Z,80.10
2018-01-11T06:18:17.430Z,79.60
2018-01-11T06:20:44.899Z,80.10
2018-01-11T06:23:12.357Z,80.20
2018-01-11T06:25:39.919Z,79.80
2018-01-11T06:28:07.498Z,79.90
2018-01-11T06:30:35.130Z,79.80
2018-01-11T06:33:02.684Z,79.70
2018-01-11T06:35:30.208Z,79.40
2018-01-11T06:37:57.754Z,79.80
2018-01-11T06:40:26.786Z,80.40
2018-01-11T06:42:54.325Z,80.20
2018-01-11T06:45:22.617Z,79.90
2018-01-11T06:47:50.157Z,79.90
2018-01-11T06:50:18.455Z,80.10
2018-01-11T06:52:46.744Z,80.10
2018-01-11T06:55:14.293Z,80.10
2018-01-11T06:57:41.832Z,80.00
2018-01-11T07:00:10.174Z,80.70
2018-01-11T07:02:37.663Z,80.60
2018-01-11T07:05:05.168Z,80.30
2018-01-11T07:07:32.710Z,80.60
2018-01-11T07:10:00.331Z,80.80
2018-01-11T07:12:27.848Z,81.30
2018-01-11T07:14:55.406Z,80.80
2018-01-11T07:17:22.978Z,80.50
2018-01-11T07:19:50.794Z,80.20
2018-01-11T07:22:19.134Z,81.00
2018-01-11T07:24:46.769Z,81.00
2018-01-11T07:27:14.309Z,80.70
2018-01-11T07:29:41.857Z,80.40
2018-01-11T07:32:09.427Z,80.40
2018-01-11T07:34:36.986Z,80.30
2018-01-11T07:37:05.295Z,80.80
2018-01-11T07:39:32.881Z,80.60
2018-01-11T07:42:00.424Z,80.80
2018-01-11T07:44:27.974Z,80.80
2018-01-11T07:46:55.550Z,81.10
2018-01-11T07:49:23.074Z,81.40
2018-01-11T07:51:50.653Z,81.50
2018-01-11T07:54:18.199Z,81.20
2018-01-11T07:56:45.776Z,81.30
2018-01-11T07:59:13.327Z,81.20
2018-01-11T08:01:40.865Z,81.00
2018-01-11T08:04:08.422Z,80.40
2018-01-11T08:06:35.992Z,80.40
2018-01-11T08:09:03.528Z,80.40
2018-01-11T08:11:31.812Z,80.70
2018-01-11T08:14:00.140Z,80.90
2018-01-11T08:16:27.684Z,80.80
2018-01-11T08:18:55.215Z,81.00
2018-01-11T08:21:22.750Z,81.20
2018-01-11T08:23:50.247Z,80.50
2018-01-11T08:26:17.780Z,80.10
2018-01-11T08:28:45.309Z,79.80
2018-01-11T08:31:12.870Z,79.20
2018-01-11T08:33:40.409Z,78.80
2018-01-11T08:36:07.948Z,78.50
2018-01-11T08:38:35.480Z,79.10
2018-01-11T08:41:03.792Z,77.50
2018-01-11T08:43:31.376Z,77.40
2018-01-11T08:45:58.906Z,77.80
2018-01-11T08:48:26.467Z,77.60
2018-01-11T08:50:54.024Z,77.20
2018-01-11T08:53:21.722Z,77.70
2018-01-11T08:55:49.278Z,77.50
2018-01-11T08:58:16.828Z,78.40
2018-01-11T09:00:44.377Z,78.30
2018-01-11T09:03:12.676Z,78.70
2018-01-11T09:05:40.251Z,78.70
2018-01-11T09:08:07.805Z,77.40
2018-01-11T09:10:35.340Z,77.80
2018-01-11T09:13:02.914Z,78.10
2018-01-11T09:15:30.474Z,78.00
2018-01-11T09:17:58.028Z,77.80
2018-01-11T09:20:25.586Z,77.30
2018-01-11T09:22:53.150Z,76.90
2018-01-11T09:25:20.678Z,74.60
2018-01-11T09:27:48.240Z,74.70
2018-01-11T09:30:15.776Z,74.10
2018-01-11T09:32:43.316Z,74.30
2018-01-11T09:35:11.667Z,74.70
2018-01-11T09:37:39.222Z,74.00
2018-01-11T09:40:06.766Z,74.10
2018-01-11T09:42:34.301Z,73.00
2018-01-11T09:45:01.819Z,72.40
2018-01-11T09:47:29.363Z,70.60
2018-01-11T09:49:56.891Z,70.20
2018-01-11T09:52:24.445Z,71.40
2018-01-11T09:54:51.976Z,71.00
2018-01-11T09:57:19.523Z,70.20
2018-01-11T09:59:47.102Z,69.80
2018-01-11T10:02:15.422Z,69.40
2018-01-11T10:04:43.038Z,69.40
2018-01-11T10:07:10.560Z,69.60
2018-01-11T10:09:38.126Z,68.90
2018-01-11T10:12:05.701Z,69.10
2018-01-11T10:14:34.018Z,69.40
2018-01-11T10:17:02.469Z,69.40
2018-01-11T10:19:30.026Z,68.90
2018-01-11T10:21:58.310Z,67.10
2018-01-11T10:24:26.615Z,65.50
2018-01-11T10:26:54.124Z,65.40
2018-01-11T10:29:21.685Z,65.20
2018-01-11T10:31:49.216Z,64.00
2018-01-11T10:34:16.752Z,63.40
2018-01-11T10:36:44.271Z,62.90
2018-01-11T10:39:12.679Z,65.30
2018-01-11T10:44:14.918Z,66.00
2018-01-11T10:46:42.445Z,65.80
2018-01-11T10:49:10.052Z,65.60
2018-01-11T10:51:37.542Z,67.30
2018-01-11T10:54:05.070Z,67.50
2018-01-11T10:56:33.366Z,65.80
2018-01-11T10:59:01.678Z,66.00
2018-01-11T11:01:35.026Z,66.00
2018-01-11T11:04:03.353Z,65.80
2018-01-11T11:06:30.893Z,65.70
2018-01-11T11:08:58.462Z,67.10
2018-01-11T11:11:26.031Z,63.00
2018-01-11T11:13:53.557Z,63.20
2018-01-11T11:16:21.102Z,61.80
2018-01-11T11:18:49.433Z,60.30
2018-01-11T11:21:16.985Z,60.20
2018-01-11T11:23:44.520Z,60.60
2018-01-11T11:26:12.097Z,61.10
2018-01-11T11:28:39.657Z,62.00
2018-01-11T11:31:07.606Z,62.10
2018-01-11T11:33:35.153Z,60.80
2018-01-11T11:36:03.488Z,60.80
2018-01-11T11:38:31.039Z,60.80
2018-01-11T11:40:58.640Z,58.80
2018-01-11T11:43:26.936Z,60.70
2018-01-11T11:45:54.642Z,60.70
2018-01-11T11:48:22.207Z,59.50
2018-01-11T11:50:49.742Z,58.50
2018-01-11T11:53:17.247Z,58.10
2018-01-11T11:55:44.790Z,59.60
2018-01-11T11:58:13.090Z,60.60
2018-01-11T12:00:42.189Z,57.30
2018-01-11T12:03:10.697Z,55.50
2018-01-11T12:05:38.401Z,55.40
2018-01-11T12:08:07.272Z,55.70
2018-01-11T12:10:34.820Z,57.10
2018-01-11T12:13:02.361Z,56.10
2018-01-11T12:15:35.539Z,58.40
2018-01-11T12:18:03.827Z,58.90
2018-01-11T12:20:32.165Z,60.00
2018-01-11T12:22:59.702Z,59.90
2018-01-11T12:25:27.252Z,61.40
2018-01-11T12:27:54.842Z,61.20
2018-01-11T12:30:22.399Z,62.50
2018-01-11T12:32:52.922Z,63.50
2018-01-11T12:35:26.275Z,62.70
2018-01-11T12:37:53.834Z,62.20
2018-01-11T12:40:21.337Z,63.10
2018-01-11T12:42:48.919Z,63.00
2018-01-11T12:45:16.421Z,63.40
2018-01-11T12:47:44.061Z,65.00
2018-01-11T12:50:11.667Z,64.70
2018-01-11T12:52:39.404Z,64.80
2018-01-11T12:55:08.024Z,63.80
2018-01-11T12:57:35.582Z,63.90
2018-01-11T13:00:03.092Z,65.60
2018-01-11T13:02:30.656Z,64.00
2018-01-11T13:04:58.162Z,64.60
2018-01-11T13:07:25.697Z,63.80
2018-01-11T13:09:53.285Z,64.60
2018-01-11T13:12:20.883Z,64.80
2018-01-11T13:14:48.457Z,65.50
2018-01-11T13:17:16.071Z,64.40
2018-01-11T13:19:43.652Z,64.60
2018-01-11T13:22:11.261Z,63.70
2018-01-11T13:24:38.846Z,64.20
2018-01-11T13:27:06.406Z,65.00
2018-01-11T13:29:34.024Z,65.10
2018-01-11T13:32:01.636Z,66.20
2018-01-11T13:34:29.538Z,66.90
2018-01-11T13:36:57.191Z,66.80
2018-01-11T13:39:25.080Z,66.90
2018-01-11T13:41:52.785Z,65.80
2018-01-11T13:44:22.877Z,65.70
2018-01-11T13:46:57.184Z,65.70
2018-01-11T14:31:46.127Z,64.90
2018-01-11T14:34:23.876Z,64.30
2018-01-11T14:36:51.572Z,63.40
2018-01-11T14:39:19.183Z,62.50
2018-01-11T14:41:53.230Z,63.40
2018-01-11T14:44:21.628Z,62.60
2018-01-11T14:46:49.296Z,62.60
2018-01-11T14:49:16.950Z,62.60
2018-01-11T14:51:44.633Z,62.70
2018-01-11T14:54:12.245Z,63.80
2018-01-11T14:56:39.864Z,63.40
2018-01-11T14:59:07.467Z,64.20
2018-01-11T15:01:35.169Z,64.70
2018-01-11T15:04:02.830Z,64.70
2018-01-11T15:06:53.128Z,64.30
2018-01-11T15:09:20.829Z,64.30
2018-01-11T15:11:48.405Z,64.50
2018-01-11T15:14:15.981Z,65.20
2018-01-11T15:16:44.390Z,66.60
2018-01-11T15:19:11.989Z,66.50
2018-01-11T15:21:39.541Z,66.70
2018-01-11T15:24:07.217Z,66.80
2018-01-11T15:26:34.765Z,66.20
2018-01-11T15:29:02.428Z,66.30
2018-01-11T15:31:30.014Z,67.00
2018-01-11T15:33:57.589Z,67.70
2018-01-11T15:36:25.133Z,67.50
2018-01-11T15:38:52.664Z,67.50
2018-01-11T15:41:20.377Z,67.60
2018-01-11T15:43:47.909Z,68.20
2018-01-11T15:46:15.509Z,68.70
2018-01-11T15:48:43.072Z,69.30
2018-01-11T15:51:10.696Z,69.70
2018-01-11T15:53:38.205Z,69.50
2018-01-11T15:56:05.725Z,70.30
2018-01-11T15:58:33.248Z,70.90
2018-01-11T16:01:00.831Z,71.30
2018-01-11T16:03:28.425Z,71.80
2018-01-11T16:05:55.991Z,71.90
2018-01-11T16:08:23.602Z,71.70
2018-01-11T16:10:51.848Z,71.90
2018-01-11T16:13:20.552Z,72.70
2018-01-11T16:15:48.458Z,72.60
2018-01-11T16:18:16.518Z,72.70
2018-01-11T16:20:44.617Z,73.30
2018-01-11T16:23:12.181Z,73.50
2018-01-11T16:25:40.442Z,73.20
2018-01-11T16:28:10.310Z,73.20
2018-01-11T16:30:37.886Z,73.70
2018-01-11T16:33:07.182Z,74.10
2018-01-11T16:35:34.926Z,74.50
2018-01-11T16:38:02.751Z,74.40
2018-01-11T16:44:00.690Z,75.10
2018-01-11T16:46:45.698Z,74.60
2018-01-11T16:49:18.280Z,74.00
2018-01-11T17:16:46.734Z,73.10
2018-01-11T17:19:14.262Z,73.00
2018-01-11T17:21:41.796Z,72.80
2018-01-11T17:24:11.265Z,72.80
2018-01-11T17:26:46.354Z,72.70
2018-01-11T17:29:14.058Z,72.80
2018-01-11T17:31:43.800Z,73.10
2018-01-11T17:34:11.387Z,73.50
2018-01-11T17:36:54.541Z,73.60
2018-01-11T17:39:22.084Z,72.40
2018-01-11T17:41:49.634Z,72.60
2018-01-11T17:44:17.202Z,72.40
2018-01-11T17:46:44.762Z,73.20
2018-01-11T17:49:12.928Z,72.80
2018-01-11T17:51:41.344Z,73.10
2018-01-11T17:54:09.061Z,73.20
2018-01-11T17:56:37.487Z,73.80
2018-01-11T17:59:10.316Z,73.70
2018-01-11T18:10:18.387Z,74.40
2018-01-11T18:12:47.163Z,74.40
2018-01-11T18:15:25.604Z,74.40
2018-01-11T18:17:54.100Z,74.60
2018-01-11T18:20:22.405Z,74.80
2018-01-11T18:22:51.062Z,74.80
2018-01-11T18:25:18.738Z,74.70
2018-01-11T18:27:46.355Z,75.30
2018-01-11T18:30:13.970Z,75.10
2018-01-11T18:32:41.937Z,75.60
2018-01-11T18:35:09.611Z,75.40
2018-01-11T18:37:37.180Z,75.30
2018-01-11T18:40:04.887Z,75.30
2018-01-11T18:42:32.419Z,75.80
2018-01-11T18:45:00.073Z,75.80
2018-01-11T18:47:27.719Z,76.10
2018-01-11T18:49:55.659Z,76.60
2018-01-11T18:52:23.212Z,76.50
2018-01-11T18:57:33.356Z,76.80
2018-01-11T19:00:09.185Z,77.20
2018-01-11T19:03:00.561Z,78.10
2018-01-11T19:05:31.695Z,77.70
2018-01-11T19:08:05.371Z,77.50
2018-01-11T19:10:42.680Z,78.00
2018-01-11T19:13:14.853Z,77.90
2018-01-11T19:15:47.519Z,78.30
2018-01-11T19:18:26.586Z,78.40
2018-01-11T19:20:56.743Z,78.30
2018-01-11T19:23:36.181Z,77.90
2018-01-11T19:26:04.934Z,77.70
2018-01-11T19:28:40.179Z,78.10
2018-01-11T19:31:09.618Z,78.10
2018-01-11T19:36:56.076Z,78.00
2018-01-11T19:39:42.613Z,78.40
2018-01-11T19:42:15.041Z,78.30
2018-01-11T19:44:55.497Z,78.30
2018-01-11T19:47:27.401Z,78.00
2018-01-11T19:49:58.815Z,77.90
2018-01-11T19:52:29.056Z,77.80
2018-01-11T19:54:57.893Z,77.70
2018-01-11T19:57:28.568Z,77.50
2018-01-11T19:59:59.093Z,77.70
2018-01-11T20:02:28.579Z,77.40
2018-01-11T20:05:01.076Z,77.70
2018-01-11T20:07:30.357Z,77.70
2018-01-11T20:13:06.673Z,77.90
2018-01-11T20:24:06.418Z,78.20
2018-01-11T20:30:06.985Z,78.50
2018-01-11T21:46:26.220Z,79.70
2018-01-11T21:48:59.655Z,80.00
2018-01-11T21:51:36.732Z,80.50
2018-01-11T21:57:10.280Z,80.60
2018-01-11T22:00:03.359Z,80.90
2018-01-11T22:02:42.711Z,81.20
2018-01-11T22:08:11.572Z,80.70
2018-01-11T22:10:41.482Z,80.70
2018-01-11T22:13:10.878Z,80.50
2018-01-11T22:15:39.295Z,80.40
2018-01-11T22:18:07.016Z,80.20
2018-01-11T22:20:34.627Z,79.50
2018-01-11T22:23:05.494Z,79.60
2018-01-11T22:25:36.478Z,79.80
2018-01-11T22:28:05.202Z,79.40
2018-01-11T22:30:34.725Z,78.70
2018-01-11T22:33:03.634Z,78.70
2018-01-11T22:35:32.245Z,79.10
2018-01-11T22:38:00.058Z,79.20
2018-01-11T22:40:31.049Z,79.20
2018-01-11T22:42:58.671Z,79.10
2018-01-11T22:45:27.392Z,78.60
2018-01-11T22:47:54.996Z,78.50
2018-01-11T22:50:23.415Z,78.00
2018-01-11T22:55:28.512Z,78.60
2018-01-11T22:57:57.052Z,79.10
2018-01-11T23:00:27.187Z,79.00
2018-01-11T23:02:57.373Z,79.30
2018-01-11T23:05:26.018Z,78.60
2018-01-11T23:07:55.824Z,78.50
2018-01-11T23:10:25.636Z,79.90
2018-01-11T23:12:55.742Z,79.20
2018-01-11T23:15:24.567Z,79.80
2018-01-11T23:17:53.358Z,79.60
2018-01-11T23:20:22.524Z,79.30
2018-01-11T23:22:52.446Z,79.20
2018-01-11T23:25:20.098Z,79.30
2018-01-11T23:27:48.695Z,79.60
2018-01-11T23:30:19.089Z,80.00
2018-01-11T23:32:49.600Z,80.10
2018-01-11T23:35:21.228Z,80.20
2018-01-11T23:37:50.094Z,80.20
2018-01-11T23:40:27.335Z,80.30
2018-01-11T23:42:55.874Z,80.30
2018-01-11T23:45:25.252Z,80.20
2018-01-11T23:47:53.502Z,80.40
2018-01-11T23:50:21.191Z,80.40
2018-01-11T23:52:53.120Z,80.60
2018-01-11T23:55:20.719Z,80.60
2018-01-11T23:57:49.141Z,80.60
